Time;durP1;ratioP1;P1;durP2;ratioP2;P2;SDS_P1;SDS_P2;PMS_P1;PMS_P2;Temp;Humidity;BMP_temperature;BMP_pressure;BME280_temperature;BME280_humidity;BME280_pressure;Samples;Min_cycle;Max_cycle;Signal;HPM_P1;HPM_P2
2021/09/11 00:00:17;;;;;;;15.40;8.82;;;17.50;89.80;;;;;;5062977;28;20056;-49
2021/09/11 00:02:44;;;;;;;14.05;8.30;;;17.40;90.00;;;;;;5075772;28;20055;-50
2021/09/11 00:05:10;;;;;;;16.05;7.90;;;17.40;90.30;;;;;;5075748;28;20153;-49
2021/09/11 00:07:36;;;;;;;10.63;7.00;;;17.40;90.20;;;;;;5075829;28;20093;-49
2021/09/11 00:10:03;;;;;;;11.63;6.65;;;17.50;90.10;;;;;;5053530;28;20545;-49
2021/09/11 00:12:30;;;;;;;9.75;6.60;;;17.60;89.80;;;;;;5003732;28;20033;-51
2021/09/11 00:14:55;;;;;;;13.00;7.30;;;17.70;89.30;;;;;;5053286;28;20465;-51
2021/09/11 00:17:21;;;;;;;11.75;8.07;;;17.70;89.30;;;;;;5003713;28;20029;-51
2021/09/11 00:19:47;;;;;;;12.20;7.38;;;17.70;89.10;;;;;;5053321;28;20037;-49
2021/09/11 00:22:13;;;;;;;13.65;8.02;;;17.70;89.50;;;;;;5053382;28;20047;-52
2021/09/11 00:24:38;;;;;;;13.25;7.13;;;17.80;89.50;;;;;;5053207;28;20167;-48
2021/09/11 00:27:04;;;;;;;10.60;7.25;;;17.70;89.00;;;;;;5053002;28;20025;-49
2021/09/11 00:29:31;;;;;;;12.65;7.25;;;17.80;88.90;;;;;;5036459;28;20033;-50
2021/09/11 00:31:57;;;;;;;8.57;7.30;;;17.80;88.80;;;;;;5053327;28;20118;-51
2021/09/11 00:34:23;;;;;;;15.77;10.25;;;17.80;88.90;;;;;;5053075;28;20073;-50
2021/09/11 00:36:48;;;;;;;13.77;11.88;;;17.80;88.80;;;;;;5052870;28;20510;-51
2021/09/11 00:39:15;;;;;;;12.27;9.77;;;17.80;88.80;;;;;;5052672;28;20035;-49
2021/09/11 00:41:41;;;;;;;13.98;11.20;;;17.80;88.90;;;;;;5031411;28;20041;-51
2021/09/11 00:44:07;;;;;;;17.70;11.25;;;17.80;89.00;;;;;;5056384;28;20207;-49
2021/09/11 00:46:33;;;;;;;13.45;8.43;;;17.70;89.30;;;;;;5074972;28;20444;-50
2021/09/11 00:48:58;;;;;;;13.13;7.43;;;17.50;89.40;;;;;;5074628;28;20472;-49
2021/09/11 00:51:24;;;;;;;12.05;7.30;;;17.30;89.90;;;;;;5075336;28;20024;-49
2021/09/11 00:53:50;;;;;;;9.48;6.80;;;17.20;90.20;;;;;;5056342;28;20151;-52
2021/09/11 00:56:16;;;;;;;10.35;6.32;;;17.10;90.30;;;;;;5056367;28;20040;-49
2021/09/11 00:58:43;;;;;;;13.77;7.43;;;17.00;90.20;;;;;;5074598;28;20085;-49
2021/09/11 01:01:08;;;;;;;9.85;7.15;;;17.00;90.50;;;;;;5074329;28;20053;-49
2021/09/11 01:03:34;;;;;;;10.93;7.13;;;17.00;90.60;;;;;;5074545;28;20027;-50
2021/09/11 01:06:01;;;;;;;13.20;8.15;;;17.00;90.90;;;;;;5074560;28;20028;-51
2021/09/11 01:08:28;;;;;;;11.77;7.43;;;16.90;91.10;;;;;;5074471;28;20380;-50
2021/09/11 01:10:53;;;;;;;12.90;7.65;;;16.90;91.10;;;;;;5074470;28;20017;-51
2021/09/11 01:13:19;;;;;;;12.05;7.53;;;17.00;91.00;;;;;;5074090;28;20032;-49
2021/09/11 01:15:45;;;;;;;14.18;7.28;;;17.00;90.90;;;;;;5056041;28;20043;-50
2021/09/11 01:18:14;;;;;;;11.20;7.40;;;16.80;91.20;;;;;;5074053;28;20468;-49
2021/09/11 01:20:40;;;;;;;13.50;7.57;;;16.40;91.70;;;;;;5039055;28;20519;-50
2021/09/11 01:23:06;;;;;;;13.48;7.28;;;15.90;92.50;;;;;;5055686;28;20039;-51
2021/09/11 01:25:32;;;;;;;12.40;7.00;;;15.70;93.00;;;;;;5055817;28;20037;-50
2021/09/11 01:27:58;;;;;;;11.18;8.15;;;15.40;93.60;;;;;;5074482;28;20115;-50
2021/09/11 01:30:24;;;;;;;12.05;6.75;;;15.20;94.30;;;;;;5073819;28;20632;-49
2021/09/11 01:32:50;;;;;;;9.60;6.78;;;;;;;;;;5073962;28;20035;-50
2021/09/11 01:35:17;;;;;;;10.50;7.22;;;14.70;99.90;;;;;;5055517;28;20071;-50
2021/09/11 01:37:43;;;;;;;10.70;7.57;;;14.70;97.00;;;;;;5073970;28;20036;-48
2021/09/11 01:40:10;;;;;;;10.48;7.10;;;14.80;97.30;;;;;;5073716;28;20087;-49
2021/09/11 01:42:36;;;;;;;12.30;7.00;;;15.00;96.90;;;;;;5006048;28;20044;-50
2021/09/11 01:45:14;;;;;;;10.05;6.90;;;15.20;96.70;;;;;;5055187;28;20453;-49
2021/09/11 01:47:40;;;;;;;15.10;7.57;;;15.50;96.10;;;;;;5038898;28;20043;-49
2021/09/11 01:50:08;;;;;;;12.45;7.60;;;15.80;95.30;;;;;;5073929;28;20043;-50
2021/09/11 01:52:34;;;;;;;11.57;7.85;;;16.10;94.80;;;;;;4990026;28;20036;-48
2021/09/11 01:55:00;;;;;;;9.70;6.97;;;16.20;94.30;;;;;;5073710;28;20086;-51
2021/09/11 01:57:26;;;;;;;13.45;7.60;;;16.30;94.00;;;;;;5055544;28;20032;-49
2021/09/11 01:59:51;;;;;;;10.98;7.13;;;16.40;93.70;;;;;;5073488;28;20041;-51
2021/09/11 02:02:17;;;;;;;12.30;7.13;;;16.50;93.40;;;;;;5055090;28;20036;-50
2021/09/11 02:04:43;;;;;;;11.98;6.93;;;16.60;93.30;;;;;;5037781;28;20037;-49
2021/09/11 02:07:09;;;;;;;16.02;7.60;;;16.60;93.30;;;;;;5073537;28;20024;-49
2021/09/11 02:09:36;;;;;;;11.45;6.68;;;16.60;93.20;;;;;;5073724;28;20020;-49
2021/09/11 02:12:02;;;;;;;11.10;7.05;;;16.60;93.10;;;;;;5073526;28;20024;-49
2021/09/11 02:14:27;;;;;;;11.43;6.45;;;16.60;92.90;;;;;;5073702;28;20040;-49
2021/09/11 02:16:53;;;;;;;9.80;7.70;;;16.60;93.00;;;;;;5072903;28;20103;-49
2021/09/11 02:19:19;;;;;;;10.52;6.70;;;16.50;92.90;;;;;;5073253;28;20465;-51
2021/09/11 02:21:45;;;;;;;11.35;6.97;;;16.60;92.90;;;;;;5055052;28;20033;-48
2021/09/11 02:24:11;;;;;;;12.63;6.90;;;16.60;93.00;;;;;;5073936;28;20029;-50
2021/09/11 02:26:38;;;;;;;12.48;7.55;;;16.30;93.40;;;;;;5073440;28;20491;-51
2021/09/11 02:29:05;;;;;;;10.52;7.68;;;16.30;93.50;;;;;;5073681;28;20036;-51
2021/09/11 02:31:31;;;;;;;10.05;7.13;;;16.10;94.00;;;;;;5073531;28;20055;-49
2021/09/11 02:33:57;;;;;;;7.70;6.85;;;16.10;94.20;;;;;;5073300;28;20048;-48
2021/09/11 02:36:23;;;;;;;10.23;7.38;;;15.80;94.70;;;;;;5054761;28;20033;-50
2021/09/11 02:38:49;;;;;;;13.15;7.95;;;15.40;96.40;;;;;;5073186;28;20103;-51
2021/09/11 02:41:15;;;;;;;13.63;8.50;;;15.20;97.50;;;;;;5072169;28;20057;-49
2021/09/11 02:43:41;;;;;;;11.85;7.78;;;15.20;97.80;;;;;;5054762;28;20025;-50
2021/09/11 02:46:07;;;;;;;11.13;7.50;;;15.40;97.50;;;;;;5073255;28;20129;-51
2021/09/11 02:48:33;;;;;;;10.23;7.28;;;15.70;96.50;;;;;;5073016;28;20038;-50
2021/09/11 02:51:00;;;;;;;13.60;7.57;;;15.90;95.90;;;;;;5073001;28;20055;-51
2021/09/11 02:53:26;;;;;;;9.38;6.90;;;16.00;95.30;;;;;;5073151;28;20124;-49
2021/09/11 02:55:52;;;;;;;9.88;7.07;;;16.10;94.80;;;;;;5054745;28;20120;-51
2021/09/11 02:58:22;;;;;;;8.00;6.43;;;16.10;94.60;;;;;;5073076;28;20173;-50
2021/09/11 03:00:48;;;;;;;13.80;7.75;;;16.20;94.10;;;;;;5054981;28;20181;-50
2021/09/11 03:03:14;;;;;;;13.57;8.10;;;16.20;94.10;;;;;;5054636;28;20550;-49
2021/09/11 03:05:40;;;;;;;13.15;7.60;;;16.20;94.00;;;;;;5072975;28;20032;-49
2021/09/11 03:08:06;;;;;;;14.98;7.40;;;16.20;94.00;;;;;;5073205;28;20028;-52
2021/09/11 03:10:31;;;;;;;18.30;8.35;;;16.20;94.00;;;;;;5073032;28;20035;-50
2021/09/11 03:12:57;;;;;;;12.45;7.20;;;16.20;93.90;;;;;;5072725;28;20047;-51
2021/09/11 03:15:23;;;;;;;10.93;7.10;;;16.30;93.70;;;;;;5073384;28;20036;-50
2021/09/11 03:17:48;;;;;;;12.25;6.63;;;16.30;93.50;;;;;;5054837;28;20110;-48
2021/09/11 03:20:14;;;;;;;14.82;7.40;;;16.30;93.70;;;;;;5072818;28;20048;-49
2021/09/11 03:22:40;;;;;;;9.32;7.38;;;16.30;93.50;;;;;;5320124;22;20052;-51
2021/09/11 03:25:06;;;;;;;15.00;7.85;;;16.40;93.50;;;;;;5092993;28;20024;-49
2021/09/11 03:27:36;;;;;;;12.88;7.25;;;16.40;93.50;;;;;;5041010;28;20032;-52
2021/09/11 03:30:02;;;;;;;9.40;6.38;;;16.40;93.80;;;;;;5077700;28;20028;-51
2021/09/11 03:32:27;;;;;;;8.43;7.10;;;16.40;93.50;;;;;;5096742;28;20024;-48
2021/09/11 03:34:53;;;;;;;9.05;6.32;;;16.40;93.40;;;;;;5095459;28;20478;-50
2021/09/11 03:37:19;;;;;;;9.98;6.75;;;16.20;93.80;;;;;;5091841;28;20027;-52
2021/09/11 03:39:44;;;;;;;7.95;6.35;;;15.80;94.20;;;;;;5087784;28;20035;-48
2021/09/11 03:42:10;;;;;;;9.63;6.65;;;15.80;94.40;;;;;;4975564;28;20440;-49
2021/09/11 03:44:36;;;;;;;7.47;6.22;;;15.60;94.70;;;;;;5050885;28;20032;-46
2021/09/11 03:47:02;;;;;;;8.50;6.07;;;15.30;95.20;;;;;;5086229;28;20401;-47
2021/09/11 03:49:28;;;;;;;8.57;6.38;;;14.90;96.40;;;;;;5060171;28;20050;-48
2021/09/11 03:51:53;;;;;;;6.72;6.00;;;15.00;96.70;;;;;;5096239;28;20020;-48
2021/09/11 03:54:19;;;;;;;9.98;6.30;;;15.20;96.20;;;;;;5060611;28;20036;-49
2021/09/11 03:56:45;;;;;;;9.07;6.95;;;15.20;96.20;;;;;;5044343;28;20036;-48
2021/09/11 03:59:11;;;;;;;9.98;7.00;;;15.30;96.00;;;;;;5096065;28;20028;-49
2021/09/11 04:01:36;;;;;;;8.15;6.65;;;15.30;96.10;;;;;;5096342;28;20024;-51
2021/09/11 04:04:02;;;;;;;8.25;6.75;;;15.10;96.50;;;;;;5095907;28;20478;-50
2021/09/11 04:06:28;;;;;;;8.32;6.65;;;15.10;96.50;;;;;;5060603;28;20028;-48
2021/09/11 04:08:54;;;;;;;8.65;7.07;;;15.10;96.60;;;;;;5060775;28;20470;-50
2021/09/11 04:11:19;;;;;;;8.43;6.97;;;14.80;97.20;;;;;;5060242;28;20039;-51
2021/09/11 04:13:45;;;;;;;14.65;7.50;;;14.70;97.30;;;;;;5095736;28;20024;-51
2021/09/11 04:16:11;;;;;;;10.95;6.68;;;14.80;97.20;;;;;;5043380;28;20538;-52
2021/09/11 04:18:36;;;;;;;10.82;7.03;;;14.90;97.00;;;;;;5092426;28;20032;-51
2021/09/11 04:21:02;;;;;;;9.45;6.97;;;14.80;96.90;;;;;;5039833;28;20028;-51
2021/09/11 04:23:28;;;;;;;10.20;7.32;;;14.80;97.30;;;;;;5040272;28;20131;-51
2021/09/11 04:25:54;;;;;;;10.88;7.43;;;14.80;97.40;;;;;;5075493;28;20021;-49
2021/09/11 04:28:19;;;;;;;7.57;6.60;;;14.70;97.70;;;;;;5056969;28;20031;-50
2021/09/11 04:30:45;;;;;;;9.88;6.93;;;14.50;98.10;;;;;;5075443;28;20104;-51
2021/09/11 04:33:11;;;;;;;10.93;7.28;;;14.40;98.40;;;;;;5075294;28;20108;-49
2021/09/11 04:35:37;;;;;;;10.88;7.28;;;14.40;98.90;;;;;;5040163;28;20398;-49
2021/09/11 04:38:03;;;;;;;9.57;6.28;;;14.10;99.80;;;;;;5075315;28;20021;-49
2021/09/11 04:40:29;;;;;;;9.07;6.40;;;14.00;99.90;;;;;;5023358;28;20040;-48
2021/09/11 04:42:56;;;;;;;7.72;6.28;;;13.70;99.90;;;;;;5039919;28;20045;-49
2021/09/11 04:45:22;;;;;;;8.93;6.95;;;13.50;99.90;;;;;;5074741;28;20154;-51
2021/09/11 04:47:48;;;;;;;11.55;8.05;;;13.30;99.90;;;;;;5023131;28;20028;-49
2021/09/11 04:50:14;;;;;;;8.35;7.47;;;13.30;99.90;;;;;;5074882;28;20027;-51
2021/09/11 04:52:39;;;;;;;11.05;8.73;;;13.40;99.90;;;;;;5074665;28;20103;-49
2021/09/11 04:55:07;;;;;;;9.82;7.63;;;13.50;99.90;;;;;;5039814;28;20036;-51
2021/09/11 04:57:35;;;;;;;9.75;7.82;;;13.40;99.90;;;;;;5056333;28;20426;-51
2021/09/11 05:00:01;;;;;;;13.45;9.27;;;13.40;99.90;;;;;;5074921;28;20428;-51
2021/09/11 05:02:27;;;;;;;10.77;8.30;;;13.50;99.90;;;;;;5075979;28;20028;-51
2021/09/11 05:04:54;;;;;;;8.82;7.95;;;13.60;99.90;;;;;;5040666;28;20032;-50
2021/09/11 05:07:19;;;;;;;10.63;8.65;;;13.70;99.90;;;;;;5074737;28;20070;-51
2021/09/11 05:09:45;;;;;;;9.52;8.02;;;13.90;99.90;;;;;;5074353;28;20024;-49
2021/09/11 05:12:11;;;;;;;13.85;8.63;;;14.00;99.90;;;;;;5055957;28;20044;-49
2021/09/11 05:14:37;;;;;;;14.70;8.07;;;14.00;99.90;;;;;;5074621;28;20056;-49
2021/09/11 05:17:03;;;;;;;10.70;8.85;;;14.10;99.90;;;;;;5074275;28;20028;-50
2021/09/11 05:19:28;;;;;;;9.23;7.93;;;14.20;99.90;;;;;;5039311;28;20033;-49
2021/09/11 05:21:54;;;;;;;10.80;8.77;;;14.30;99.90;;;;;;5074181;28;20399;-51
2021/09/11 05:24:20;;;;;;;11.90;8.23;;;14.50;99.90;;;;;;5022631;28;20037;-49
2021/09/11 05:26:46;;;;;;;9.02;8.13;;;14.60;99.90;;;;;;5022673;28;20029;-51
2021/09/11 05:29:12;;;;;;;8.82;7.55;;;14.90;99.90;;;;;;5074083;28;20047;-51
2021/09/11 05:31:38;;;;;;;13.52;8.65;;;14.90;99.90;;;;;;5074287;28;20020;-51
2021/09/11 05:34:06;;;;;;;10.95;8.55;;;15.20;99.90;;;;;;5076325;28;20394;-49
2021/09/11 05:36:33;;;;;;;11.73;8.20;;;15.40;99.90;;;;;;5094341;28;20111;-50
2021/09/11 05:38:59;;;;;;;10.27;8.38;;;15.80;99.90;;;;;;5094239;28;20099;-49
2021/09/11 05:41:25;;;;;;;10.57;8.05;;;16.10;99.90;;;;;;5058575;28;20035;-49
2021/09/11 05:43:51;;;;;;;12.10;7.75;;;16.30;99.90;;;;;;5094110;28;20020;-50
2021/09/11 05:46:17;;;;;;;13.10;8.77;;;16.50;99.90;;;;;;5094100;28;20107;-50
2021/09/11 05:48:43;;;;;;;19.52;9.25;;;16.80;99.90;;;;;;5094169;28;20020;-49
2021/09/11 05:51:09;;;;;;;12.43;9.05;;;17.00;99.90;;;;;;5093104;28;20024;-51
2021/09/11 05:53:35;;;;;;;10.93;7.88;;;17.20;99.90;;;;;;5009001;28;20119;-48
2021/09/11 05:56:00;;;;;;;11.77;8.23;;;17.40;99.90;;;;;;5093855;28;20513;-47
2021/09/11 05:58:26;;;;;;;11.43;8.32;;;17.40;99.90;;;;;;5086234;28;20024;-49
2021/09/11 06:00:52;;;;;;;11.85;9.30;;;17.50;99.90;;;;;;5038573;28;20520;-47
2021/09/11 06:03:18;;;;;;;15.90;9.27;;;17.70;99.90;;;;;;5073614;28;20522;-50
2021/09/11 06:05:44;;;;;;;15.18;9.75;;;17.80;99.90;;;;;;5038668;28;20068;-50
2021/09/11 06:08:09;;;;;;;17.30;9.32;;;18.00;99.90;;;;;;5038418;28;20029;-47
2021/09/11 06:10:35;;;;;;;17.38;11.15;;;18.00;99.50;;;;;;5073753;28;20119;-50
2021/09/11 06:13:01;;;;;;;16.92;11.85;;;18.30;99.90;;;;;;5073590;28;20059;-49
2021/09/11 06:15:27;;;;;;;21.20;11.32;;;18.50;99.60;;;;;;5054985;28;20116;-49
2021/09/11 06:17:53;;;;;;;17.75;10.75;;;18.60;98.60;;;;;;5083043;28;20061;-47
2021/09/11 06:20:19;;;;;;;18.67;9.38;;;18.80;98.70;;;;;;5073340;28;20024;-47
2021/09/11 06:22:46;;;;;;;21.20;9.93;;;19.00;98.10;;;;;;5073199;28;20032;-47
2021/09/11 06:25:13;;;;;;;22.25;10.07;;;19.20;97.50;;;;;;5070326;28;20395;-50
2021/09/11 06:27:40;;;;;;;19.02;10.30;;;19.40;97.40;;;;;;5073564;28;20375;-51
2021/09/11 06:30:11;;;;;;;23.17;9.05;;;19.50;96.30;;;;;;5073117;28;20024;-50
2021/09/11 06:32:37;;;;;;;16.83;8.27;;;19.60;95.00;;;;;;5079560;28;20384;-49
2021/09/11 06:35:05;;;;;;;16.65;8.15;;;19.80;95.20;;;;;;5073472;28;20025;-51
2021/09/11 06:37:31;;;;;;;12.65;7.57;;;20.00;94.80;;;;;;5022168;28;20395;-51
2021/09/11 06:39:58;;;;;;;14.23;7.95;;;20.20;94.40;;;;;;5073184;28;20025;-51
2021/09/11 06:42:23;;;;;;;16.52;10.43;;;20.40;93.80;;;;;;5062306;28;20060;-52
2021/09/11 06:44:49;;;;;;;10.60;6.95;;;20.60;93.60;;;;;;5086721;28;20514;-49
2021/09/11 06:47:15;;;;;;;10.57;6.50;;;20.70;93.00;;;;;;5057765;28;20040;-50
2021/09/11 06:49:42;;;;;;;9.02;6.15;;;20.90;92.20;;;;;;5093538;28;20425;-51
2021/09/11 06:52:09;;;;;;;10.07;6.45;;;20.90;91.60;;;;;;5093391;28;20070;-52
2021/09/11 06:54:35;;;;;;;13.70;6.30;;;21.10;91.70;;;;;;5039139;28;20123;-51
2021/09/11 06:57:02;;;;;;;9.05;5.15;;;21.20;91.40;;;;;;5083782;28;20032;-52
2021/09/11 06:59:27;;;;;;;12.52;5.80;;;21.30;90.70;;;;;;5081877;28;20027;-53
2021/09/11 07:01:53;;;;;;;11.25;5.30;;;21.40;90.50;;;;;;5083158;28;20060;-49
2021/09/11 07:04:19;;;;;;;11.95;5.88;;;21.40;89.90;;;;;;5047054;28;20040;-49
2021/09/11 07:06:44;;;;;;;12.35;5.47;;;21.40;89.60;;;;;;5077160;28;20028;-53
2021/09/11 07:09:10;;;;;;;11.20;5.97;;;21.50;90.00;;;;;;5092198;28;20032;-52
2021/09/11 07:11:36;;;;;;;9.50;5.30;;;21.70;89.60;;;;;;5097153;28;20108;-52
2021/09/11 07:14:02;;;;;;;9.88;5.10;;;21.90;88.50;;;;;;5097029;28;20157;-51
2021/09/11 07:16:28;;;;;;;9.30;5.60;;;22.00;89.70;;;;;;5044956;28;20032;-50
2021/09/11 07:18:54;;;;;;;9.48;5.57;;;22.00;87.90;;;;;;5096731;28;20024;-50
2021/09/11 07:21:20;;;;;;;9.10;5.18;;;22.20;87.20;;;;;;5057920;28;20067;-53
2021/09/11 07:23:45;;;;;;;11.23;5.45;;;22.30;86.40;;;;;;5097026;28;20021;-49
2021/09/11 07:26:13;;;;;;;12.23;5.72;;;22.50;86.30;;;;;;5096983;28;20091;-51
2021/09/11 07:28:39;;;;;;;10.80;5.20;;;22.60;85.40;;;;;;5090556;28;20517;-49
2021/09/11 07:31:04;;;;;;;12.60;6.05;;;22.70;84.80;;;;;;5095115;28;20060;-53
2021/09/11 07:33:30;;;;;;;7.85;4.90;;;22.50;83.40;;;;;;5042960;28;20105;-52
2021/09/11 07:35:56;;;;;;;10.13;5.13;;;22.70;83.80;;;;;;5076164;28;20051;-51
2021/09/11 07:38:22;;;;;;;11.23;5.75;;;22.90;83.20;;;;;;5085585;28;20086;-50
2021/09/11 07:40:47;;;;;;;6.55;4.80;;;23.00;83.00;;;;;;5044670;28;20475;-53
2021/09/11 07:43:13;;;;;;;12.27;5.63;;;23.10;82.30;;;;;;5095631;28;20524;-50
2021/09/11 07:45:39;;;;;;;9.70;5.68;;;23.30;81.60;;;;;;5096287;28;20024;-51
2021/09/11 07:48:06;;;;;;;12.32;6.03;;;23.70;81.90;;;;;;5092938;28;20074;-53
2021/09/11 07:50:35;;;;;;;11.23;4.85;;;23.80;80.90;;;;;;5095497;28;20028;-50
2021/09/11 07:53:04;;;;;;;10.20;5.03;;;23.60;80.20;;;;;;5096290;28;20382;-54
2021/09/11 07:55:31;;;;;;;11.27;4.95;;;23.90;79.60;;;;;;5060219;28;20032;-51
2021/09/11 07:57:57;;;;;;;9.93;5.30;;;24.10;78.60;;;;;;5096089;28;20036;-51
2021/09/11 08:00:25;;;;;;;11.48;4.85;;;24.50;78.30;;;;;;5096595;28;20024;-50
2021/09/11 08:02:51;;;;;;;12.75;5.13;;;24.70;77.80;;;;;;5055307;28;20029;-52
2021/09/11 08:05:17;;;;;;;11.48;4.80;;;24.80;76.50;;;;;;5076503;28;20524;-51
2021/09/11 08:07:42;;;;;;;9.18;4.80;;;25.20;76.20;;;;;;5057611;28;20119;-53
2021/09/11 08:10:09;;;;;;;12.63;5.00;;;25.00;75.30;;;;;;5085862;28;20028;-49
2021/09/11 08:12:35;;;;;;;8.98;4.40;;;25.30;76.20;;;;;;5043569;28;20043;-50
2021/09/11 08:15:01;;;;;;;11.38;4.90;;;25.70;74.80;;;;;;5094487;28;20028;-51
2021/09/11 08:17:27;;;;;;;13.07;4.95;;;25.80;74.60;;;;;;5095656;28;20028;-53
2021/09/11 08:19:53;;;;;;;10.63;4.55;;;26.20;74.60;;;;;;5060443;28;20024;-54
2021/09/11 08:22:19;;;;;;;13.57;5.22;;;26.30;73.10;;;;;;5092386;28;20052;-52
2021/09/11 08:24:44;;;;;;;11.20;5.95;;;26.20;72.20;;;;;;5046176;28;20380;-49
2021/09/11 08:27:10;;;;;;;5.15;4.15;;;26.50;71.20;;;;;;5075522;28;20028;-53
2021/09/11 08:29:36;;;;;;;9.98;5.75;;;27.00;71.00;;;;;;5075967;28;20452;-50
2021/09/11 08:32:03;;;;;;;10.27;5.13;;;27.10;71.70;;;;;;5090464;28;20031;-50
2021/09/11 08:34:29;;;;;;;7.40;4.50;;;27.60;70.60;;;;;;5085501;28;20043;-52
2021/09/11 08:36:55;;;;;;;15.88;5.28;;;;;;;;;;5084382;28;20031;-50
2021/09/11 08:39:24;;;;;;;10.55;4.93;;;28.20;68.90;;;;;;5079897;28;20104;-51
2021/09/11 08:41:51;;;;;;;7.20;4.22;;;27.90;69.60;;;;;;5082434;28;20040;-52
2021/09/11 08:44:17;;;;;;;9.60;4.57;;;28.40;68.40;;;;;;5043683;28;20028;-53
2021/09/11 08:46:44;;;;;;;11.50;5.88;;;;;;;;;;5049090;28;20035;-52
2021/09/11 08:49:10;;;;;;;7.72;4.57;;;28.50;67.90;;;;;;5074832;28;20498;-53
2021/09/11 08:51:36;;;;;;;10.02;5.00;;;28.80;66.80;;;;;;5075224;28;20042;-51
2021/09/11 08:54:03;;;;;;;10.02;5.22;;;29.50;68.80;;;;;;5076291;28;20032;-55
2021/09/11 08:56:29;;;;;;;15.07;5.97;;;;;;;;;;5090497;28;20088;-51
2021/09/11 08:59:08;;;;;;;9.80;5.07;;;29.80;70.10;;;;;;5094182;28;20020;-52
2021/09/11 09:01:34;;;;;;;9.32;5.13;;;29.40;73.40;;;;;;5059059;28;20372;-52
2021/09/11 09:04:01;;;;;;;7.88;4.63;;;;;;;;;;5042875;28;20555;-54
2021/09/11 09:06:29;;;;;;;13.63;5.40;;;29.50;78.50;;;;;;5095076;28;20359;-53
2021/09/11 09:09:14;;;;;;;8.63;4.78;;;29.30;79.90;;;;;;5095018;28;20024;-50
2021/09/11 09:11:42;;;;;;;9.23;4.65;;;29.10;79.10;;;;;;5095095;28;20020;-52
2021/09/11 09:14:14;;;;;;;11.00;4.32;;;;;;;;;;5094893;28;20032;-52
2021/09/11 09:16:43;;;;;;;7.75;4.30;;;30.30;62.40;;;;;;5094519;28;20039;-52
2021/09/11 09:19:11;;;;;;;7.68;4.57;;;30.50;61.80;;;;;;5094611;28;20077;-51
2021/09/11 09:21:38;;;;;;;9.90;4.78;;;30.90;61.50;;;;;;5094549;28;20110;-52
2021/09/11 09:24:06;;;;;;;8.32;4.75;;;31.40;61.10;;;;;;5094770;28;20028;-51
2021/09/11 09:26:55;;;;;;;7.22;4.30;;;31.90;60.90;;;;;;5094383;28;20026;-52
2021/09/11 09:29:22;;;;;;;10.15;4.93;;;;;;;;;;5094374;28;20016;-52
2021/09/11 09:31:50;;;;;;;12.85;4.50;;;32.30;59.30;;;;;;5094710;28;20463;-51
2021/09/11 09:34:39;;;;;;;9.45;3.80;;;32.30;59.80;;;;;;5042478;28;20039;-54
2021/09/11 09:37:15;;;;;;;6.78;3.70;;;32.50;58.00;;;;;;5095062;28;20028;-52
2021/09/11 09:39:48;;;;;;;8.98;4.22;;;32.70;58.50;;;;;;5095004;28;20024;-50
2021/09/11 09:42:15;;;;;;;6.93;4.07;;;;;;;;;;5094242;28;20016;-53
2021/09/11 09:44:54;;;;;;;9.00;3.97;;;33.20;65.40;;;;;;5094113;28;20111;-54
2021/09/11 09:47:23;;;;;;;9.63;4.35;;;33.40;57.40;;;;;;5094074;28;20060;-54
2021/09/11 09:50:14;;;;;;;7.28;3.53;;;33.50;56.00;;;;;;5094003;28;20533;-54
2021/09/11 09:52:40;;;;;;;8.00;3.90;;;33.40;55.80;;;;;;5094283;28;20028;-54
2021/09/11 09:55:07;;;;;;;13.90;4.70;;;33.50;56.00;;;;;;5093984;28;20376;-52
2021/09/11 09:57:36;;;;;;;7.35;4.03;;;33.40;56.00;;;;;;5042094;28;20035;-56
2021/09/11 10:00:03;;;;;;;8.63;7.60;;;33.50;56.90;;;;;;5042603;28;20479;-52
2021/09/11 10:02:29;;;;;;;6.28;3.80;;;33.70;55.80;;;;;;5058830;28;20077;-52
2021/09/11 10:04:56;;;;;;;6.50;3.70;;;34.00;53.00;;;;;;5094157;28;20016;-57
2021/09/11 10:07:24;;;;;;;12.13;4.22;;;34.10;52.50;;;;;;5042131;28;20044;-53
2021/09/11 10:09:51;;;;;;;6.78;4.10;;;34.30;53.70;;;;;;5093836;28;20482;-52
2021/09/11 10:12:41;;;;;;;5.28;3.30;;;34.30;52.90;;;;;;5094176;28;20024;-53
2021/09/11 10:15:33;;;;;;;6.55;3.40;;;34.20;53.20;;;;;;5093725;28;20032;-55
2021/09/11 10:17:59;;;;;;;9.93;3.92;;;34.30;52.40;;;;;;5093910;28;20028;-54
2021/09/11 10:20:26;;;;;;;7.20;3.63;;;34.50;52.40;;;;;;5058943;28;20353;-54
2021/09/11 10:23:13;;;;;;;11.20;3.90;;;34.40;52.40;;;;;;5093520;28;20407;-52
2021/09/11 10:25:47;;;;;;;9.60;3.70;;;34.70;52.80;;;;;;5094526;28;20415;-56
2021/09/11 10:28:16;;;;;;;6.93;3.55;;;34.40;53.20;;;;;;5093648;28;20051;-54
2021/09/11 10:31:02;;;;;;;7.88;3.40;;;33.50;52.40;;;;;;5093878;28;20109;-53
2021/09/11 10:33:51;;;;;;;8.40;3.50;;;33.50;53.50;;;;;;5094331;28;20040;-52
2021/09/11 10:36:22;;;;;;;10.93;4.25;;;34.00;52.40;;;;;;5010042;28;20046;-55
2021/09/11 10:38:51;;;;;;;8.18;3.92;;;34.20;52.40;;;;;;5013960;28;20038;-54
2021/09/11 10:41:18;;;;;;;8.10;3.65;;;34.40;51.90;;;;;;4998182;28;20038;-51
2021/09/11 10:44:05;;;;;;;5.93;3.60;;;34.40;51.80;;;;;;5014417;28;20041;-51
2021/09/11 10:46:50;;;;;;;6.50;3.58;;;34.40;52.00;;;;;;4997589;28;20129;-55
2021/09/11 10:49:34;;;;;;;6.30;3.75;;;34.50;52.20;;;;;;5014078;28;20496;-55
2021/09/11 10:52:03;;;;;;;5.22;3.30;;;34.00;52.20;;;;;;5014525;28;20030;-51
2021/09/11 10:54:49;;;;;;;8.32;3.67;;;34.30;52.60;;;;;;4981445;28;20053;-51
2021/09/11 10:57:16;;;;;;;11.05;3.75;;;34.60;52.60;;;;;;5014148;28;20042;-53
2021/09/11 10:59:47;;;;;;;7.70;4.10;;;34.90;52.50;;;;;;5013756;28;20038;-56
2021/09/11 11:02:31;;;;;;;8.80;3.50;;;35.10;51.20;;;;;;5013600;28;20030;-52
2021/09/11 11:05:02;;;;;;;10.05;3.60;;;;;;;;;;5013724;28;20398;-51
2021/09/11 11:07:28;;;;;;;;;;;;;;;;;;5014055;28;20489;-55
2021/09/11 11:09:57;;;;;;;8.35;3.58;;;35.20;63.20;;;;;;5013892;28;19913;-55
2021/09/11 11:12:31;;;;;;;9.57;3.45;;;35.40;65.80;;;;;;5007526;28;20042;-55
2021/09/11 11:15:00;;;;;;;6.22;3.50;;;34.60;70.90;;;;;;5059423;28;20051;-52
2021/09/11 11:17:27;;;;;;;6.47;3.58;;;34.80;71.80;;;;;;5095499;28;20024;-53
2021/09/11 11:19:54;;;;;;;6.60;3.38;;;34.80;70.70;;;;;;5095684;28;20119;-51
2021/09/11 11:22:40;;;;;;;4.80;3.10;;;35.10;73.70;;;;;;5095290;28;20052;-56
2021/09/11 11:25:08;;;;;;;5.38;3.15;;;;;;;;;;5076786;28;20044;-50
2021/09/11 11:27:34;;;;;;;9.80;2.80;;;34.80;48.70;;;;;;5059770;28;20043;-52
2021/09/11 11:30:01;;;;;;;7.53;3.00;;;34.80;51.30;;;;;;5043096;28;20039;-56
2021/09/11 11:32:29;;;;;;;6.07;3.30;;;34.50;51.10;;;;;;5092477;28;20591;-52
2021/09/11 11:35:00;;;;;;;9.25;3.15;;;34.90;51.60;;;;;;5047104;28;20045;-56
2021/09/11 11:37:30;;;;;;;5.82;3.05;;;35.10;59.10;;;;;;5075023;28;20407;-52
2021/09/11 11:40:03;;;;;;;7.78;3.67;;;35.30;50.30;;;;;;5022784;28;20479;-52
2021/09/11 11:42:33;;;;;;;9.43;3.83;;;35.10;50.80;;;;;;5087739;28;20398;-51
2021/09/11 11:45:00;;;;;;;8.10;3.70;;;35.00;50.40;;;;;;5079365;28;20050;-55
2021/09/11 11:47:37;;;;;;;6.70;3.40;;;35.40;50.70;;;;;;5095032;28;20043;-52
2021/09/11 11:50:15;;;;;;;6.55;3.15;;;;;;;;;;5093769;28;20099;-51
2021/09/11 11:52:42;;;;;;;5.75;3.30;;;35.70;48.40;;;;;;5094527;28;20459;-51
2021/09/11 11:55:10;;;;;;;4.18;2.95;;;35.90;49.60;;;;;;5095023;28;20028;-50
2021/09/11 11:57:36;;;;;;;6.68;3.00;;;35.40;48.50;;;;;;5058476;28;20063;-54
2021/09/11 12:00:11;;;;;;;4.97;2.63;;;34.50;49.80;;;;;;5071959;28;20040;-52
2021/09/11 12:02:39;;;;;;;4.68;3.25;;;35.00;49.20;;;;;;5040010;28;20036;-51
2021/09/11 12:05:26;;;;;;;8.70;3.17;;;35.10;48.80;;;;;;5085870;28;20025;-53
2021/09/11 12:07:59;;;;;;;7.60;3.33;;;35.50;49.10;;;;;;5064261;28;20047;-53
2021/09/11 12:10:30;;;;;;;7.40;3.95;;;35.50;48.90;;;;;;5047483;28;20054;-54
2021/09/11 12:13:06;;;;;;;8.75;2.88;;;35.40;49.10;;;;;;5083689;28;20032;-54
2021/09/11 12:15:34;;;;;;;8.68;3.75;;;34.90;49.70;;;;;;5075693;28;20098;-51
2021/09/11 12:18:14;;;;;;;5.43;3.25;;;34.60;49.40;;;;;;5038835;28;20071;-51
2021/09/11 12:20:53;;;;;;;6.43;3.35;;;34.40;49.80;;;;;;5074094;28;20379;-50
2021/09/11 12:23:31;;;;;;;6.90;3.10;;;34.10;50.00;;;;;;5073938;28;20586;-55
2021/09/11 12:26:01;;;;;;;7.28;3.67;;;34.50;52.80;;;;;;5074077;28;20039;-51
2021/09/11 12:28:38;;;;;;;6.82;3.22;;;34.60;49.70;;;;;;5022112;28;20071;-52
2021/09/11 12:31:08;;;;;;;9.02;3.72;;;34.80;49.70;;;;;;5021947;28;20040;-55
2021/09/11 12:33:43;;;;;;;9.32;3.88;;;34.70;49.30;;;;;;5073813;28;20090;-51
2021/09/11 12:36:21;;;;;;;10.00;3.40;;;34.30;51.10;;;;;;5005324;28;20430;-54
2021/09/11 12:38:47;;;;;;;5.82;3.03;;;34.20;49.60;;;;;;5073532;28;20471;-56
2021/09/11 12:41:13;;;;;;;9.73;3.20;;;34.20;51.10;;;;;;5021881;28;20499;-52
2021/09/11 12:43:39;;;;;;;9.07;3.20;;;34.20;49.70;;;;;;5073797;28;20031;-53
2021/09/11 12:46:05;;;;;;;8.98;3.03;;;34.20;49.80;;;;;;5073677;28;20115;-54
2021/09/11 12:48:31;;;;;;;8.40;3.10;;;34.20;48.90;;;;;;5073712;28;20101;-54